createdAt,value
2019-05-25T00:02:16.508Z,7.53
2019-05-25T00:04:45.098Z,6.62
2019-05-25T00:07:13.662Z,7.00
2019-05-25T00:09:42.116Z,7.10
2019-05-25T00:12:10.012Z,6.40
2019-05-25T00:14:38.026Z,6.60
2019-05-25T00:17:06.414Z,7.85
2019-05-25T00:19:34.334Z,7.05
2019-05-25T00:22:02.416Z,6.37
2019-05-25T00:24:31.083Z,6.50
2019-05-25T00:26:59.164Z,7.75
2019-05-25T00:29:27.074Z,7.90
2019-05-25T00:31:55.103Z,7.53
2019-05-25T00:34:23.509Z,8.43
2019-05-25T00:36:51.687Z,7.45
2019-05-25T00:39:19.891Z,8.40
2019-05-25T00:41:47.995Z,7.85
2019-05-25T00:44:16.004Z,7.92
2019-05-25T00:46:43.919Z,8.20
2019-05-25T00:49:12.123Z,7.25
2019-05-25T00:51:40.231Z,7.92
2019-05-25T00:54:08.318Z,8.08
2019-05-25T00:56:36.347Z,8.10
2019-05-25T00:59:04.760Z,8.28
2019-05-25T01:01:32.711Z,7.47
2019-05-25T01:04:00.559Z,9.13
2019-05-25T01:06:28.562Z,6.97
2019-05-25T01:08:56.427Z,8.58
2019-05-25T01:11:25.334Z,7.80
2019-05-25T01:13:53.953Z,9.45
2019-05-25T01:16:22.486Z,7.53
2019-05-25T01:18:50.979Z,7.20
2019-05-25T01:21:19.509Z,8.05
2019-05-25T01:23:47.819Z,7.83
2019-05-25T01:26:16.585Z,8.30
2019-05-25T01:28:44.932Z,9.63
2019-05-25T01:31:12.911Z,8.98
2019-05-25T01:33:40.887Z,7.45
2019-05-25T01:36:08.824Z,7.75
2019-05-25T01:38:37.415Z,8.45
2019-05-25T01:41:05.388Z,8.20
2019-05-25T01:43:33.743Z,8.93
2019-05-25T01:46:01.778Z,7.62
2019-05-25T01:48:29.732Z,8.20
2019-05-25T01:50:57.639Z,7.22
2019-05-25T01:53:25.503Z,8.28
2019-05-25T01:55:53.580Z,7.92
2019-05-25T01:58:21.406Z,8.65
2019-05-25T02:00:49.277Z,8.50
2019-05-25T02:03:17.221Z,8.98
2019-05-25T02:05:45.127Z,8.45
2019-05-25T02:08:13.361Z,7.55
2019-05-25T02:10:41.359Z,6.80
2019-05-25T02:13:09.319Z,7.92
2019-05-25T02:15:37.263Z,7.50
2019-05-25T02:18:05.201Z,6.85
2019-05-25T02:20:33.287Z,7.47
2019-05-25T02:23:01.124Z,8.00
2019-05-25T02:25:29.071Z,9.08
2019-05-25T02:27:57.171Z,8.50
2019-05-25T02:30:26.550Z,9.63
2019-05-25T02:32:54.500Z,10.88
2019-05-25T02:35:26.764Z,10.18
2019-05-25T02:37:55.511Z,10.10
2019-05-25T02:40:23.829Z,12.50
2019-05-25T02:42:51.866Z,10.82
2019-05-25T02:45:19.959Z,11.65
2019-05-25T02:47:49.416Z,10.53
2019-05-25T02:50:18.419Z,9.98
2019-05-25T02:52:46.499Z,10.15
2019-05-25T02:55:14.814Z,8.60
2019-05-25T02:57:43.022Z,9.95
2019-05-25T03:00:11.517Z,9.85
2019-05-25T03:02:39.462Z,9.65
2019-05-25T03:05:07.603Z,8.95
2019-05-25T03:07:35.932Z,10.30
2019-05-25T03:10:04.943Z,9.50
2019-05-25T03:12:33.139Z,9.60
2019-05-25T03:15:01.163Z,9.45
2019-05-25T03:17:29.225Z,9.38
2019-05-25T03:19:57.393Z,10.10
2019-05-25T03:22:25.462Z,9.50
2019-05-25T03:24:53.457Z,9.38
2019-05-25T03:27:21.534Z,8.73
2019-05-25T03:29:49.528Z,9.68
2019-05-25T03:32:20.482Z,8.40
2019-05-25T03:34:48.564Z,8.73
2019-05-25T03:37:16.596Z,10.08
2019-05-25T03:39:44.551Z,9.75
2019-05-25T03:42:12.464Z,8.30
2019-05-25T03:44:40.335Z,10.53
2019-05-25T03:47:08.291Z,9.00
2019-05-25T03:49:37.112Z,9.25
2019-05-25T03:52:05.172Z,8.63
2019-05-25T03:54:33.078Z,8.93
2019-05-25T03:57:01.071Z,9.18
2019-05-25T03:59:28.992Z,10.00
2019-05-25T04:01:56.928Z,9.23
2019-05-25T04:04:24.898Z,9.05
2019-05-25T04:06:52.756Z,9.23
2019-05-25T04:09:21.022Z,8.15
2019-05-25T04:11:49.011Z,8.28
2019-05-25T04:14:16.833Z,7.75
2019-05-25T04:16:44.818Z,8.13
2019-05-25T04:19:12.700Z,8.65
2019-05-25T04:21:40.550Z,7.75
2019-05-25T04:24:14.574Z,9.68
2019-05-25T04:26:42.499Z,8.70
2019-05-25T04:29:10.716Z,9.55
2019-05-25T04:31:38.654Z,8.08
2019-05-25T04:34:07.110Z,8.40
2019-05-25T04:36:36.390Z,9.48
2019-05-25T04:39:06.689Z,8.80
2019-05-25T04:41:36.434Z,8.35
2019-05-25T04:44:04.392Z,8.33
2019-05-25T04:46:33.916Z,7.87
2019-05-25T04:49:01.810Z,9.08
2019-05-25T04:51:29.692Z,8.73
2019-05-25T04:53:57.686Z,9.43
2019-05-25T04:56:39.079Z,8.68
2019-05-25T04:58:55.575Z,8.30
2019-05-25T05:01:23.543Z,9.15
2019-05-25T05:03:51.586Z,8.05
2019-05-25T05:06:19.491Z,9.55
2019-05-25T05:08:47.661Z,9.15
2019-05-25T05:11:16.166Z,10.10
2019-05-25T05:13:44.207Z,9.23
2019-05-25T05:16:12.381Z,9.63
2019-05-25T05:18:40.541Z,8.80
2019-05-25T05:21:08.539Z,8.35
2019-05-25T05:23:38.655Z,9.83
2019-05-25T05:26:06.964Z,9.73
2019-05-25T05:28:34.821Z,10.30
2019-05-25T05:31:02.785Z,10.45
2019-05-25T05:33:30.634Z,8.55
2019-05-25T05:36:00.043Z,8.85
2019-05-25T05:38:29.592Z,8.35
2019-05-25T05:40:59.247Z,9.00
2019-05-25T05:43:29.035Z,7.30
2019-05-25T05:45:58.201Z,8.00
2019-05-25T05:48:27.582Z,8.07
2019-05-25T05:50:59.817Z,7.03
2019-05-25T05:53:27.739Z,8.87
2019-05-25T05:55:55.691Z,8.17
2019-05-25T05:58:23.865Z,9.53
2019-05-25T06:00:53.878Z,8.80
2019-05-25T06:03:21.862Z,9.80
2019-05-25T06:05:49.719Z,10.37
2019-05-25T06:08:18.095Z,9.60
2019-05-25T06:10:46.041Z,11.43
2019-05-25T06:13:13.992Z,14.67
2019-05-25T06:15:41.825Z,11.67
2019-05-25T06:18:09.859Z,11.87
2019-05-25T06:20:38.208Z,10.93
2019-05-25T06:23:08.642Z,11.10
2019-05-25T06:25:36.033Z,11.80
2019-05-25T06:28:03.934Z,12.97
2019-05-25T06:30:32.038Z,12.00
2019-05-25T06:33:00.309Z,13.00
2019-05-25T06:35:28.604Z,16.20
2019-05-25T06:37:56.523Z,13.77
2019-05-25T06:40:24.563Z,14.70
2019-05-25T06:42:52.471Z,14.87
2019-05-25T06:45:20.944Z,16.13
2019-05-25T06:47:48.866Z,14.60
2019-05-25T06:50:16.870Z,14.60
2019-05-25T06:52:44.789Z,13.93
2019-05-25T06:55:13.178Z,15.67
2019-05-25T06:57:43.521Z,16.30
2019-05-25T07:00:13.026Z,15.10
2019-05-25T07:02:42.089Z,13.90
2019-05-25T07:05:11.175Z,12.83
2019-05-25T07:07:40.263Z,13.43
2019-05-25T07:10:08.840Z,14.87
2019-05-25T07:12:37.150Z,14.20
2019-05-25T07:15:06.037Z,15.67
2019-05-25T07:17:34.010Z,14.47
2019-05-25T07:20:02.287Z,14.40
2019-05-25T07:22:30.864Z,14.40
2019-05-25T07:24:58.818Z,13.70
2019-05-25T07:27:26.776Z,14.50
2019-05-25T07:29:54.856Z,15.00
2019-05-25T07:32:22.487Z,14.47
2019-05-25T07:34:50.355Z,14.23
2019-05-25T07:37:21.068Z,13.60
2019-05-25T07:39:49.215Z,13.13
2019-05-25T07:42:19.952Z,15.13
2019-05-25T07:44:47.163Z,15.67
2019-05-25T07:47:15.321Z,13.47
2019-05-25T07:49:43.267Z,12.90
2019-05-25T07:52:11.306Z,13.87
2019-05-25T07:54:40.168Z,14.23
2019-05-25T07:57:08.118Z,14.07
2019-05-25T07:59:36.214Z,15.07
2019-05-25T08:02:04.452Z,16.27
2019-05-25T08:04:32.996Z,14.80
2019-05-25T08:07:01.044Z,16.10
2019-05-25T08:09:29.089Z,15.20
2019-05-25T08:11:58.619Z,15.97
2019-05-25T08:14:27.208Z,14.20
2019-05-25T08:16:56.097Z,14.90
2019-05-25T08:19:24.138Z,14.90
2019-05-25T08:21:53.440Z,13.30
2019-05-25T08:24:24.548Z,13.47
2019-05-25T08:26:54.219Z,14.90
2019-05-25T08:29:22.605Z,14.67
2019-05-25T08:31:52.122Z,14.80
2019-05-25T08:34:21.368Z,13.93
2019-05-25T08:36:53.336Z,13.50
2019-05-25T08:39:21.727Z,16.00
2019-05-25T08:41:49.765Z,11.60
2019-05-25T08:44:17.986Z,13.03
2019-05-25T08:46:47.138Z,10.60
2019-05-25T08:49:17.818Z,12.07
2019-05-25T08:51:46.599Z,12.83
2019-05-25T08:54:15.913Z,14.53
2019-05-25T08:56:45.487Z,11.70
2019-05-25T08:59:14.557Z,11.80
2019-05-25T09:01:44.003Z,10.27
2019-05-25T09:04:13.210Z,9.70
2019-05-25T09:06:42.466Z,11.63
2019-05-25T09:09:11.012Z,11.50
2019-05-25T09:11:39.977Z,12.33
2019-05-25T09:14:08.835Z,11.43
2019-05-25T09:16:37.572Z,12.90
2019-05-25T09:19:06.126Z,13.07
2019-05-25T09:21:34.182Z,12.73
2019-05-25T09:24:03.552Z,11.27
2019-05-25T09:26:32.041Z,11.87
2019-05-25T09:29:04.425Z,15.20
2019-05-25T09:31:30.777Z,12.30
2019-05-25T09:33:59.072Z,11.77
2019-05-25T09:36:27.686Z,12.57
2019-05-25T09:38:55.683Z,12.40
2019-05-25T09:41:23.817Z,11.97
2019-05-25T09:43:52.314Z,13.03
2019-05-25T09:46:20.531Z,12.60
2019-05-25T09:48:48.681Z,12.30
2019-05-25T09:51:16.631Z,11.60
2019-05-25T09:53:44.843Z,11.93
2019-05-25T09:56:13.014Z,11.10
2019-05-25T09:58:41.429Z,9.37
2019-05-25T10:01:09.783Z,12.20
2019-05-25T10:03:39.346Z,12.20
2019-05-25T10:06:12.260Z,12.60
2019-05-25T10:08:38.962Z,12.80
2019-05-25T10:11:07.986Z,10.77
2019-05-25T10:13:36.799Z,11.87
2019-05-25T10:16:05.745Z,10.90
2019-05-25T10:18:34.885Z,11.50
2019-05-25T10:21:03.475Z,10.43
2019-05-25T10:23:32.195Z,10.17
2019-05-25T10:26:01.225Z,12.10
2019-05-25T10:28:30.384Z,11.40
2019-05-25T10:30:58.407Z,11.97
2019-05-25T10:33:32.855Z,11.43
2019-05-25T10:36:01.555Z,10.37
2019-05-25T10:38:33.569Z,9.07
2019-05-25T10:41:01.947Z,11.50
2019-05-25T10:43:30.220Z,11.00
2019-05-25T10:45:59.451Z,12.73
2019-05-25T10:48:28.434Z,11.70
2019-05-25T10:50:58.311Z,10.03
2019-05-25T10:53:26.767Z,12.63
2019-05-25T10:55:55.971Z,11.30
2019-05-25T10:58:29.184Z,13.10
2019-05-25T11:00:57.395Z,12.87
2019-05-25T11:03:25.599Z,11.83
2019-05-25T11:05:55.020Z,12.93
2019-05-25T11:08:23.068Z,13.37
2019-05-25T11:10:51.432Z,13.50
2019-05-25T11:13:19.484Z,11.37
2019-05-25T11:15:47.966Z,12.30
2019-05-25T11:18:16.108Z,13.13
2019-05-25T11:20:44.320Z,10.87
2019-05-25T11:23:12.275Z,11.37
2019-05-25T11:25:40.322Z,13.80
2019-05-25T11:28:08.610Z,11.73
2019-05-25T11:30:36.662Z,12.03
2019-05-25T11:33:04.986Z,14.03
2019-05-25T11:35:33.185Z,15.97
2019-05-25T11:38:03.326Z,11.80
2019-05-25T11:40:32.261Z,12.03
2019-05-25T11:43:04.702Z,12.00
2019-05-25T11:45:33.402Z,14.23
2019-05-25T11:48:01.913Z,12.33
2019-05-25T11:50:30.943Z,12.10
2019-05-25T11:53:05.444Z,11.63
2019-05-25T11:55:31.807Z,11.30
2019-05-25T11:58:00.741Z,11.10
2019-05-25T12:00:28.979Z,9.93
2019-05-25T12:02:57.225Z,10.23
2019-05-25T12:05:25.748Z,10.90
2019-05-25T12:07:54.259Z,11.50
2019-05-25T12:10:23.005Z,12.20
2019-05-25T12:12:51.074Z,10.80
2019-05-25T12:15:19.261Z,9.80
2019-05-25T12:17:47.300Z,11.17
2019-05-25T12:20:16.040Z,11.80
2019-05-25T12:22:43.955Z,10.43
2019-05-25T12:25:12.378Z,10.97
2019-05-25T12:27:40.926Z,14.07
2019-05-25T12:30:11.327Z,11.43
2019-05-25T12:32:39.600Z,12.53
2019-05-25T12:35:09.054Z,10.57
2019-05-25T12:37:37.403Z,10.90
2019-05-25T12:40:05.728Z,10.60
2019-05-25T12:42:33.872Z,11.73
2019-05-25T12:45:02.088Z,9.13
2019-05-25T12:47:30.314Z,10.37
2019-05-25T12:49:58.655Z,11.40
2019-05-25T12:52:27.356Z,9.53
2019-05-25T12:54:55.375Z,11.70
2019-05-25T12:57:24.231Z,11.40
2019-05-25T12:59:52.525Z,10.90
2019-05-25T13:02:20.785Z,11.50
2019-05-25T13:04:48.884Z,12.20
2019-05-25T13:07:17.736Z,10.73
2019-05-25T13:09:45.958Z,13.70
2019-05-25T13:12:16.477Z,12.00
2019-05-25T13:14:44.566Z,13.37
2019-05-25T13:17:12.813Z,12.73
2019-05-25T13:19:40.931Z,11.40
2019-05-25T13:22:09.734Z,11.10
2019-05-25T13:24:38.283Z,12.57
2019-05-25T13:27:07.583Z,9.50
2019-05-25T13:29:36.080Z,10.00
2019-05-25T13:32:04.434Z,8.33
2019-05-25T13:34:32.637Z,7.47
2019-05-25T13:37:01.855Z,7.33
2019-05-25T13:39:30.787Z,6.60
2019-05-25T13:41:58.805Z,11.80
2019-05-25T13:44:27.362Z,8.90
2019-05-25T13:46:56.489Z,9.40
2019-05-25T13:49:24.398Z,8.60
2019-05-25T13:51:52.837Z,8.27
2019-05-25T13:54:21.189Z,7.13
2019-05-25T13:56:49.526Z,8.10
2019-05-25T13:59:17.742Z,5.13
2019-05-25T14:01:45.876Z,4.70
2019-05-25T14:04:13.899Z,3.83
2019-05-25T14:06:42.646Z,3.80
2019-05-25T14:09:11.136Z,4.50
2019-05-25T14:11:39.427Z,3.33
2019-05-25T14:14:07.742Z,2.27
2019-05-25T14:16:35.978Z,1.70
2019-05-25T14:19:04.310Z,3.13
2019-05-25T14:21:32.484Z,1.57
2019-05-25T14:24:00.828Z,2.60
2019-05-25T14:26:29.406Z,1.00
2019-05-25T14:28:57.856Z,1.00
2019-05-25T14:31:26.079Z,0.87
2019-05-25T14:33:54.340Z,1.00
2019-05-25T14:36:22.447Z,0.77
2019-05-25T14:38:50.423Z,1.47
2019-05-25T14:41:18.669Z,0.80
2019-05-25T14:43:46.793Z,1.23
2019-05-25T14:46:27.508Z,1.03
2019-05-25T14:48:45.689Z,0.60
2019-05-25T14:51:14.423Z,0.87
2019-05-25T14:53:42.483Z,3.53
2019-05-25T14:56:10.512Z,1.43
2019-05-25T14:58:38.742Z,0.93
2019-05-25T15:01:06.839Z,0.87
2019-05-25T15:03:34.919Z,2.30
2019-05-25T15:06:02.931Z,0.80
2019-05-25T15:08:31.029Z,0.70
2019-05-25T15:10:58.996Z,0.60
2019-05-25T15:13:27.434Z,0.60
2019-05-25T15:15:55.697Z,1.33
2019-05-25T15:18:23.824Z,0.93
2019-05-25T15:20:51.939Z,1.33
2019-05-25T15:23:20.167Z,0.60
2019-05-25T15:25:48.414Z,2.67
2019-05-25T15:28:17.326Z,0.80
2019-05-25T15:30:45.319Z,1.23
2019-05-25T15:33:13.667Z,0.60
2019-05-25T15:35:42.502Z,0.50
2019-05-25T15:38:11.217Z,1.50
2019-05-25T15:40:39.490Z,1.00
2019-05-25T15:43:07.684Z,0.63
2019-05-25T15:45:35.964Z,1.40
2019-05-25T15:48:04.374Z,0.80
2019-05-25T15:50:33.761Z,1.10
2019-05-25T15:53:02.135Z,1.00
2019-05-25T15:55:30.711Z,0.60
2019-05-25T15:57:58.987Z,0.87
2019-05-25T16:00:46.407Z,0.90
2019-05-25T16:03:18.387Z,0.80
2019-05-25T16:05:47.811Z,0.80
2019-05-25T16:08:17.858Z,1.20
2019-05-25T16:10:46.619Z,0.70
2019-05-25T16:13:15.242Z,2.20
2019-05-25T16:15:43.504Z,3.83
2019-05-25T16:18:12.375Z,2.03
2019-05-25T16:20:40.567Z,2.17
2019-05-25T16:23:08.753Z,1.30
2019-05-25T16:25:37.078Z,0.93
2019-05-25T16:28:05.472Z,1.20
2019-05-25T16:30:33.534Z,0.70
2019-05-25T16:33:17.575Z,2.47
2019-05-25T16:35:32.397Z,0.70
2019-05-25T16:38:00.733Z,0.93
2019-05-25T16:40:29.454Z,0.87
2019-05-25T16:42:58.232Z,0.70
2019-05-25T16:45:26.440Z,0.70
2019-05-25T16:47:55.130Z,3.17
2019-05-25T16:50:23.277Z,1.00
2019-05-25T16:52:51.883Z,3.43
2019-05-25T16:55:20.327Z,12.70
2019-05-25T16:57:48.907Z,24.43
2019-05-25T17:00:27.339Z,6.27
2019-05-25T17:02:57.311Z,5.47
2019-05-25T17:05:27.352Z,2.40
2019-05-25T17:07:56.598Z,2.93
2019-05-25T17:10:25.224Z,5.90
2019-05-25T17:12:53.668Z,1.70
2019-05-25T17:15:22.066Z,3.17
2019-05-25T17:17:50.356Z,3.57
2019-05-25T17:20:18.882Z,2.30
2019-05-25T17:22:47.284Z,2.00
2019-05-25T17:25:16.316Z,8.57
2019-05-25T17:27:44.497Z,0.93
2019-05-25T17:30:15.351Z,11.57
2019-05-25T17:32:43.310Z,2.50
2019-05-25T17:35:11.593Z,2.30
2019-05-25T17:37:39.573Z,2.80
2019-05-25T17:40:07.967Z,8.37
2019-05-25T17:42:36.257Z,1.43
2019-05-25T17:45:05.936Z,1.10
2019-05-25T17:47:34.118Z,8.10
2019-05-25T17:50:02.264Z,5.97
2019-05-25T17:52:30.693Z,2.70
2019-05-25T17:54:58.628Z,2.87
2019-05-25T17:57:26.647Z,7.13
2019-05-25T17:59:54.734Z,2.87
2019-05-25T18:02:22.747Z,2.90
2019-05-25T18:04:50.841Z,4.10
2019-05-25T18:07:18.831Z,1.83
2019-05-25T18:09:47.621Z,2.40
2019-05-25T18:12:15.704Z,2.00
2019-05-25T18:14:44.153Z,2.67
2019-05-25T18:17:12.187Z,1.80
2019-05-25T18:19:40.286Z,4.83
2019-05-25T18:22:08.580Z,3.80
2019-05-25T18:24:36.659Z,3.50
2019-05-25T18:27:04.823Z,4.83
2019-05-25T18:29:34.530Z,16.50
2019-05-25T18:32:02.541Z,4.30
2019-05-25T18:34:30.677Z,3.00
2019-05-25T18:36:59.086Z,6.83
2019-05-25T18:39:27.298Z,2.77
2019-05-25T18:41:57.192Z,8.90
2019-05-25T18:44:25.352Z,4.30
2019-05-25T18:46:53.501Z,4.50
2019-05-25T18:49:21.562Z,4.23
2019-05-25T18:51:49.586Z,3.17
2019-05-25T18:54:18.303Z,4.93
2019-05-25T18:56:47.333Z,5.80
2019-05-25T18:59:15.445Z,2.60
2019-05-25T19:01:44.013Z,3.13
2019-05-25T19:04:12.156Z,10.33
2019-05-25T19:06:40.382Z,9.40
2019-05-25T19:09:10.486Z,6.50
2019-05-25T19:11:38.722Z,6.33
2019-05-25T19:14:07.285Z,7.33
2019-05-25T19:16:35.714Z,3.20
2019-05-25T19:19:03.960Z,3.27
2019-05-25T19:21:32.615Z,1.93
2019-05-25T19:24:00.778Z,5.50
2019-05-25T19:26:28.929Z,1.73
2019-05-25T19:28:57.007Z,2.50
2019-05-25T19:31:25.696Z,2.03
2019-05-25T19:33:53.866Z,2.37
2019-05-25T19:36:22.141Z,3.13
2019-05-25T19:38:50.285Z,3.30
2019-05-25T19:41:18.352Z,4.67
2019-05-25T19:43:47.572Z,4.00
2019-05-25T19:46:15.679Z,4.40
2019-05-25T19:48:43.849Z,7.70
2019-05-25T19:51:12.120Z,5.43
2019-05-25T19:53:40.578Z,5.30
2019-05-25T19:56:08.651Z,6.63
2019-05-25T19:58:36.802Z,4.70
2019-05-25T20:01:04.879Z,4.78
2019-05-25T20:03:32.866Z,3.30
2019-05-25T20:06:01.206Z,4.17
2019-05-25T20:08:29.517Z,3.77
2019-05-25T20:10:58.002Z,3.85
2019-05-25T20:13:26.125Z,5.05
2019-05-25T20:15:54.369Z,4.92
2019-05-25T20:18:22.420Z,4.10
2019-05-25T20:20:50.420Z,4.97
2019-05-25T20:23:18.511Z,5.78
2019-05-25T20:25:46.951Z,5.35
2019-05-25T20:28:14.954Z,3.85
2019-05-25T20:30:43.410Z,4.30
2019-05-25T20:33:11.415Z,3.55
2019-05-25T20:35:39.544Z,8.63
2019-05-25T20:38:07.584Z,5.50
2019-05-25T20:40:35.946Z,4.55
2019-05-25T20:43:03.996Z,5.03
2019-05-25T20:45:32.345Z,8.08
2019-05-25T20:48:00.847Z,5.35
2019-05-25T20:50:28.960Z,5.03
2019-05-25T20:52:56.997Z,5.17
2019-05-25T20:55:25.056Z,4.00
2019-05-25T20:57:53.120Z,4.53
2019-05-25T21:00:24.184Z,18.37
2019-05-25T21:03:05.275Z,6.20
2019-05-25T21:05:21.560Z,4.78
2019-05-25T21:07:50.014Z,27.45
2019-05-25T21:10:18.226Z,10.08
2019-05-25T21:12:46.435Z,36.53
2019-05-25T21:15:16.322Z,5.87
2019-05-25T21:17:44.393Z,8.75
2019-05-25T21:20:13.365Z,5.72
2019-05-25T21:22:41.310Z,4.50
2019-05-25T21:25:09.698Z,8.68
2019-05-25T21:27:37.856Z,5.53
2019-05-25T21:30:07.593Z,4.90
2019-05-25T21:32:35.615Z,5.47
2019-05-25T21:35:03.645Z,5.62
2019-05-25T21:37:32.081Z,5.37
2019-05-25T21:40:00.418Z,6.00
2019-05-25T21:42:28.468Z,6.00
2019-05-25T21:44:56.359Z,5.53
2019-05-25T21:47:24.517Z,5.28
2019-05-25T21:49:52.947Z,5.47
2019-05-25T21:52:20.961Z,6.20
2019-05-25T21:54:50.533Z,5.28
2019-05-25T21:57:18.465Z,5.67
2019-05-25T21:59:46.342Z,12.30
2019-05-25T22:02:14.794Z,6.92
2019-05-25T22:04:42.999Z,6.62
2019-05-25T22:07:11.129Z,6.80
2019-05-25T22:09:39.055Z,6.25
2019-05-25T22:12:07.214Z,5.70
2019-05-25T22:14:35.270Z,6.33
2019-05-25T22:17:03.882Z,6.22
2019-05-25T22:19:31.896Z,6.17
2019-05-25T22:22:02.516Z,11.88
2019-05-25T22:24:30.418Z,5.95
2019-05-25T22:26:58.293Z,6.78
2019-05-25T22:29:26.263Z,5.40
2019-05-25T22:31:54.372Z,5.83
2019-05-25T22:34:22.301Z,6.70
2019-05-25T22:36:50.243Z,7.72
2019-05-25T22:39:18.145Z,7.30
2019-05-25T22:41:46.162Z,6.72
2019-05-25T22:44:14.143Z,8.18
2019-05-25T22:46:42.370Z,7.87
2019-05-25T22:49:10.518Z,8.28
2019-05-25T22:51:38.882Z,9.68
2019-05-25T22:54:06.858Z,91.63
2019-05-25T22:56:34.997Z,32.98
2019-05-25T22:59:03.345Z,51.42
2019-05-25T23:01:31.567Z,53.70
2019-05-25T23:04:00.137Z,40.58
2019-05-25T23:06:28.171Z,10.85
2019-05-25T23:08:56.465Z,10.75
2019-05-25T23:11:24.488Z,19.40
2019-05-25T23:13:52.745Z,14.80
2019-05-25T23:16:20.722Z,15.53
2019-05-25T23:18:48.771Z,11.33
2019-05-25T23:21:16.666Z,8.90
2019-05-25T23:23:44.846Z,8.33
2019-05-25T23:26:12.915Z,7.50
2019-05-25T23:28:40.840Z,7.42
2019-05-25T23:31:08.865Z,7.65
2019-05-25T23:33:36.980Z,7.00
2019-05-25T23:36:04.929Z,7.70
2019-05-25T23:38:33.012Z,9.03
2019-05-25T23:41:03.354Z,8.10
2019-05-25T23:43:31.261Z,8.00
2019-05-25T23:45:59.686Z,7.78
2019-05-25T23:48:27.671Z,7.90
2019-05-25T23:50:55.605Z,9.23
2019-05-25T23:53:23.710Z,10.10
2019-05-25T23:55:51.992Z,8.18
2019-05-25T23:58:19.883Z,9.30
